Time;durP1;ratioP1;P1;durP2;ratioP2;P2;SDS_P1;SDS_P2;PMS_P1;PMS_P2;Temp;Humidity;BMP_temperature;BMP_pressure;BME280_temperature;BME280_humidity;BME280_pressure;Samples;Min_cycle;Max_cycle;Signal;HPM_P1;HPM_P2
2021/01/01 00:00:47;;;;;;;38.83;31.23;;;4.30;99.90;;;;;;5071557;28;20199;-74
2021/01/01 00:03:13;;;;;;;44.40;34.60;;;4.30;99.90;;;;;;5071929;28;20446;-74
2021/01/01 00:05:40;;;;;;;38.90;30.50;;;4.20;99.90;;;;;;5071681;28;20477;-74
2021/01/01 00:08:06;;;;;;;39.50;31.90;;;4.30;99.90;;;;;;5052360;28;20459;-74
2021/01/01 00:10:31;;;;;;;41.73;33.17;;;4.20;99.90;;;;;;5071681;28;20437;-74
2021/01/01 00:12:57;;;;;;;37.90;31.17;;;4.20;99.90;;;;;;5053483;28;20445;-74
2021/01/01 00:15:23;;;;;;;40.03;32.30;;;4.20;99.90;;;;;;5071529;28;20188;-74
2021/01/01 00:17:48;;;;;;;41.33;31.23;;;4.20;99.90;;;;;;5078871;28;20692;-74
2021/01/01 00:20:14;;;;;;;42.57;32.00;;;4.20;99.90;;;;;;5070491;28;20515;-74
2021/01/01 00:22:42;;;;;;;38.47;30.30;;;4.20;99.90;;;;;;5071453;28;20187;-74
2021/01/01 00:25:08;;;;;;;38.63;30.43;;;4.20;99.90;;;;;;5080341;28;20582;-74
2021/01/01 00:27:34;;;;;;;43.53;31.77;;;4.20;99.90;;;;;;5073378;28;20549;-74
2021/01/01 00:30:00;;;;;;;46.30;31.17;;;4.20;99.90;;;;;;5069598;28;20521;-74
2021/01/01 00:32:26;;;;;;;45.20;32.57;;;4.20;99.90;;;;;;5072045;28;20878;-74
2021/01/01 00:34:51;;;;;;;48.27;32.07;;;4.20;99.90;;;;;;5070428;28;20188;-74
2021/01/01 00:37:17;;;;;;;42.93;33.83;;;4.20;99.90;;;;;;5073814;28;20644;-73
2021/01/01 00:39:42;;;;;;;41.80;31.63;;;4.20;99.90;;;;;;5074766;28;20236;-73
2021/01/01 00:42:08;;;;;;;43.17;31.07;;;4.10;99.90;;;;;;5077150;28;20202;-74
2021/01/01 00:44:34;;;;;;;47.60;31.33;;;4.10;99.90;;;;;;5054221;28;20256;-73
2021/01/01 00:47:00;;;;;;;43.47;31.20;;;4.10;99.90;;;;;;5060537;28;20456;-74
2021/01/01 00:49:26;;;;;;;43.73;31.90;;;4.10;99.90;;;;;;5070249;28;20271;-73
2021/01/01 00:51:52;;;;;;;38.20;31.00;;;4.10;99.90;;;;;;5051355;28;20437;-73
2021/01/01 00:54:18;;;;;;;45.60;32.77;;;4.10;99.90;;;;;;5070967;28;20434;-73
2021/01/01 00:56:43;;;;;;;44.30;34.10;;;4.10;99.90;;;;;;5053672;28;20460;-73
2021/01/01 00:59:09;;;;;;;39.57;31.10;;;4.10;99.90;;;;;;5074084;28;20249;-73
2021/01/01 01:01:35;;;;;;;43.33;32.47;;;4.10;99.90;;;;;;5070751;28;20194;-73
2021/01/01 01:04:00;;;;;;;42.53;31.47;;;4.10;99.90;;;;;;5070653;28;20215;-74
2021/01/01 01:06:27;;;;;;;36.23;26.77;;;4.10;99.90;;;;;;5051613;28;20629;-73
2021/01/01 01:08:53;;;;;;;36.80;28.47;;;4.10;99.90;;;;;;5077007;28;20219;-73
2021/01/01 01:11:23;;;;;;;39.27;29.17;;;4.10;99.90;;;;;;5069397;28;20816;-74
2021/01/01 01:13:50;;;;;;;39.87;29.80;;;4.10;99.90;;;;;;5071077;28;21018;-74
2021/01/01 01:16:23;;;;;;;37.57;28.70;;;4.10;99.90;;;;;;5072289;28;20437;-73
2021/01/01 01:18:48;;;;;;;39.43;28.43;;;4.10;99.90;;;;;;5060297;28;20433;-73
2021/01/01 01:21:14;;;;;;;36.67;28.90;;;4.10;99.90;;;;;;5070287;28;20445;-73
2021/01/01 01:23:39;;;;;;;39.33;28.20;;;4.10;99.90;;;;;;5052011;28;20199;-73
2021/01/01 01:26:05;;;;;;;39.50;30.00;;;4.00;99.90;;;;;;5073508;28;20230;-74
2021/01/01 01:28:30;;;;;;;38.87;28.73;;;4.10;99.90;;;;;;5071174;28;20576;-73
2021/01/01 01:30:56;;;;;;;41.90;28.53;;;4.10;99.90;;;;;;5069181;28;20287;-73
2021/01/01 01:33:21;;;;;;;40.10;29.23;;;4.10;99.90;;;;;;5069904;28;20538;-74
2021/01/01 01:35:47;;;;;;;38.50;29.60;;;4.10;99.90;;;;;;5070320;28;20187;-74
2021/01/01 01:38:12;;;;;;;37.30;29.03;;;4.10;99.90;;;;;;5074519;28;20191;-74
2021/01/01 01:40:38;;;;;;;41.20;29.07;;;4.00;99.90;;;;;;5068507;28;20210;-73
2021/01/01 01:43:03;;;;;;;46.30;33.00;;;4.00;99.90;;;;;;5072791;28;20187;-73
2021/01/01 01:45:29;;;;;;;40.10;29.47;;;4.00;99.90;;;;;;5069515;28;20214;-73
2021/01/01 01:47:56;;;;;;;46.93;32.43;;;4.00;99.90;;;;;;5069129;28;20211;-73
2021/01/01 01:50:22;;;;;;;40.20;32.40;;;4.00;99.90;;;;;;5054008;28;20197;-74
2021/01/01 01:52:48;;;;;;;43.90;32.63;;;4.00;99.90;;;;;;5077804;28;20442;-74
2021/01/01 01:55:14;;;;;;;42.47;30.83;;;4.00;99.90;;;;;;5052419;28;20187;-74
2021/01/01 01:57:40;;;;;;;46.43;34.13;;;4.00;99.90;;;;;;5070640;28;20946;-74
2021/01/01 02:02:55;;;;;;;47.30;35.93;;;4.00;99.90;;;;;;5070757;28;20328;-73
2021/01/01 02:05:21;;;;;;;49.60;35.07;;;4.00;99.90;;;;;;5067246;28;20552;-74
2021/01/01 02:07:47;;;;;;;54.43;37.10;;;4.00;99.90;;;;;;5075404;28;20569;-74
2021/01/01 02:10:13;;;;;;;48.97;36.30;;;4.00;99.90;;;;;;5073501;28;21083;-74
2021/01/01 02:12:40;;;;;;;48.70;35.73;;;4.00;99.90;;;;;;5069159;28;20442;-74
2021/01/01 02:15:07;;;;;;;49.47;35.77;;;4.00;99.90;;;;;;5069271;28;20490;-74
2021/01/01 02:17:32;;;;;;;50.13;35.23;;;4.10;99.90;;;;;;5068847;28;20437;-73
2021/01/01 02:20:09;;;;;;;54.20;39.50;;;4.10;99.90;;;;;;5075923;28;20467;-74
2021/01/01 02:22:38;;;;;;;51.13;39.37;;;4.10;99.90;;;;;;5050281;28;20187;-74
2021/01/01 02:25:05;;;;;;;52.80;39.30;;;4.10;99.90;;;;;;5067935;28;20946;-74
2021/01/01 02:27:31;;;;;;;60.17;44.20;;;4.20;99.90;;;;;;5074341;28;20502;-73
2021/01/01 02:29:57;;;;;;;56.03;40.50;;;4.10;99.90;;;;;;5051959;28;20990;-74
2021/01/01 02:32:23;;;;;;;58.37;41.77;;;4.20;99.90;;;;;;5069182;28;20552;-73
2021/01/01 02:34:48;;;;;;;61.40;41.57;;;4.20;99.90;;;;;;5069719;28;20468;-73
2021/01/01 02:37:14;;;;;;;57.93;40.97;;;4.20;99.90;;;;;;5071049;28;20221;-73
2021/01/01 02:39:40;;;;;;;52.00;41.53;;;4.20;99.90;;;;;;5073089;28;20623;-74
2021/01/01 02:42:05;;;;;;;57.07;41.87;;;4.20;99.90;;;;;;5051077;28;20277;-73
2021/01/01 02:44:31;;;;;;;55.10;41.27;;;4.20;99.90;;;;;;5068797;28;20540;-73
2021/01/01 02:47:03;;;;;;;52.67;41.20;;;4.20;99.90;;;;;;5068111;28;20188;-74
2021/01/01 02:49:32;;;;;;;53.97;40.60;;;4.20;99.90;;;;;;5074198;28;20192;-74
2021/01/01 02:51:59;;;;;;;58.77;41.63;;;4.10;99.90;;;;;;5068602;28;20426;-73
2021/01/01 02:54:25;;;;;;;57.57;42.43;;;4.10;99.90;;;;;;5053418;28;20483;-74
2021/01/01 02:56:50;;;;;;;63.90;42.43;;;4.20;99.90;;;;;;5066675;28;20433;-74
2021/01/01 02:59:16;;;;;;;57.07;40.53;;;4.20;99.90;;;;;;5072904;28;20546;-73
2021/01/01 03:01:41;;;;;;;56.90;43.90;;;4.10;99.90;;;;;;5073013;28;20176;-73
2021/01/01 03:04:08;;;;;;;59.13;43.00;;;4.10;99.90;;;;;;5073018;28;20215;-74
2021/01/01 03:06:33;;;;;;;61.60;44.90;;;4.10;99.90;;;;;;5072432;28;20218;-74
2021/01/01 03:08:59;;;;;;;58.20;42.93;;;4.10;99.90;;;;;;5055008;28;20434;-73
2021/01/01 03:11:25;;;;;;;59.77;42.80;;;4.10;99.90;;;;;;5072441;28;20192;-74
2021/01/01 03:13:50;;;;;;;56.77;42.03;;;4.10;99.90;;;;;;5071702;28;20438;-74
2021/01/01 03:16:16;;;;;;;63.30;43.20;;;4.10;99.90;;;;;;5072384;28;20183;-73
2021/01/01 03:18:44;;;;;;;59.43;43.20;;;4.10;99.90;;;;;;5074745;28;20194;-74
2021/01/01 03:21:10;;;;;;;63.43;47.10;;;4.20;99.90;;;;;;5074724;28;20222;-72
2021/01/01 03:23:36;;;;;;;65.30;48.90;;;4.10;99.90;;;;;;5060944;28;20472;-72
2021/01/01 03:26:01;;;;;;;71.60;47.87;;;4.20;99.90;;;;;;5073097;28;21541;-72
2021/01/01 03:28:27;;;;;;;61.03;45.17;;;4.20;99.90;;;;;;5055632;28;20191;-72
2021/01/01 03:30:52;;;;;;;69.07;46.77;;;4.20;99.90;;;;;;5072151;28;20198;-72
2021/01/01 03:33:18;;;;;;;64.77;44.33;;;4.20;99.90;;;;;;5059338;28;20185;-72
2021/01/01 03:35:43;;;;;;;65.23;45.67;;;4.20;99.90;;;;;;5073588;28;20188;-72
2021/01/01 03:38:09;;;;;;;66.77;46.30;;;4.20;99.90;;;;;;5077684;28;20256;-72
2021/01/01 03:40:34;;;;;;;66.27;46.17;;;4.20;99.90;;;;;;5073703;28;20219;-72
2021/01/01 03:43:00;;;;;;;62.23;45.20;;;4.20;99.90;;;;;;5071182;28;20625;-72
2021/01/01 03:45:28;;;;;;;63.10;44.40;;;4.20;99.90;;;;;;5053805;28;20211;-72
2021/01/01 03:47:53;;;;;;;62.07;45.03;;;4.20;99.90;;;;;;5056976;28;20183;-72
2021/01/01 03:50:19;;;;;;;69.90;44.30;;;4.20;99.90;;;;;;5058620;28;20497;-72
2021/01/01 03:52:44;;;;;;;62.40;45.57;;;4.20;99.90;;;;;;5053866;28;20195;-73
2021/01/01 03:55:10;;;;;;;59.53;43.47;;;4.20;99.90;;;;;;5072327;28;20184;-73
2021/01/01 03:57:35;;;;;;;65.63;43.63;;;4.20;99.90;;;;;;5071412;28;20191;-73
2021/01/01 04:00:04;;;;;;;75.27;44.77;;;4.20;99.90;;;;;;5073208;28;20248;-73
2021/01/01 04:02:30;;;;;;;64.40;42.53;;;4.20;99.90;;;;;;5072712;28;20252;-73
2021/01/01 04:04:56;;;;;;;59.80;41.77;;;4.20;99.90;;;;;;5072065;28;20468;-73
2021/01/01 04:07:21;;;;;;;59.27;43.00;;;4.20;99.90;;;;;;5073826;28;20339;-73
2021/01/01 04:09:47;;;;;;;57.73;42.07;;;4.20;99.90;;;;;;5071084;28;20489;-73
2021/01/01 04:12:12;;;;;;;60.30;42.13;;;4.20;99.90;;;;;;5053772;28;20560;-73
2021/01/01 04:14:38;;;;;;;52.13;39.00;;;4.20;99.90;;;;;;5071412;28;20283;-73
2021/01/01 04:17:03;;;;;;;53.50;39.53;;;4.20;99.90;;;;;;5053770;28;20192;-73
2021/01/01 04:19:28;;;;;;;58.73;41.87;;;4.20;99.90;;;;;;5055783;28;20219;-73
2021/01/01 04:21:54;;;;;;;56.40;39.53;;;4.20;99.90;;;;;;5070976;28;20274;-73
2021/01/01 04:24:19;;;;;;;55.73;39.03;;;4.20;99.90;;;;;;5076718;28;20219;-73
2021/01/01 04:26:45;;;;;;;55.50;38.30;;;4.10;99.90;;;;;;5071531;28;20313;-73
2021/01/01 04:29:11;;;;;;;56.43;39.10;;;4.20;99.90;;;;;;5071203;28;20194;-73
2021/01/01 04:31:37;;;;;;;59.03;40.40;;;4.20;99.90;;;;;;5070784;28;20191;-73
2021/01/01 04:34:04;;;;;;;50.30;36.40;;;4.20;99.90;;;;;;5076629;28;20494;-73
2021/01/01 04:36:30;;;;;;;48.73;35.37;;;4.20;99.90;;;;;;5051799;28;20437;-73
2021/01/01 04:38:56;;;;;;;47.27;35.13;;;4.20;99.90;;;;;;5060112;28;20945;-73
2021/01/01 04:41:22;;;;;;;45.90;33.73;;;4.20;99.90;;;;;;5070851;28;20441;-73
2021/01/01 04:43:49;;;;;;;46.77;32.97;;;4.20;99.90;;;;;;5070937;28;20508;-73
2021/01/01 04:46:15;;;;;;;47.43;34.93;;;4.20;99.90;;;;;;5069976;28;20285;-73
2021/01/01 04:48:43;;;;;;;47.47;34.57;;;4.20;99.90;;;;;;5075400;28;20913;-73
2021/01/01 04:51:08;;;;;;;49.23;36.40;;;4.20;99.90;;;;;;5073780;28;20219;-73
2021/01/01 04:53:39;;;;;;;47.93;33.80;;;4.20;99.90;;;;;;5075426;28;20468;-73
2021/01/01 04:56:06;;;;;;;41.80;29.73;;;4.20;99.90;;;;;;5071137;28;20186;-73
2021/01/01 04:58:32;;;;;;;43.50;30.80;;;4.20;99.90;;;;;;5051386;28;20849;-73
2021/01/01 05:00:58;;;;;;;46.40;31.97;;;4.20;99.90;;;;;;5072576;28;20525;-73
2021/01/01 05:03:24;;;;;;;49.90;35.03;;;4.20;99.90;;;;;;5071651;28;20524;-73
2021/01/01 05:05:50;;;;;;;44.60;33.70;;;4.20;99.90;;;;;;5070787;28;20243;-73
2021/01/01 05:08:17;;;;;;;44.50;30.90;;;4.20;99.90;;;;;;5076346;28;20441;-73
2021/01/01 05:10:44;;;;;;;44.17;31.10;;;4.20;99.90;;;;;;5069644;28;20955;-73
2021/01/01 05:13:14;;;;;;;48.57;33.47;;;4.20;99.90;;;;;;5052454;28;20449;-73
2021/01/01 05:15:41;;;;;;;42.40;33.07;;;4.20;99.90;;;;;;5071187;28;20646;-73
2021/01/01 05:18:23;;;;;;;48.63;35.47;;;4.20;99.90;;;;;;5059184;28;20429;-73
2021/01/01 05:20:54;;;;;;;40.57;30.50;;;4.20;99.90;;;;;;5054504;28;20517;-73
2021/01/01 05:23:22;;;;;;;43.87;32.60;;;4.20;99.90;;;;;;5076474;28;20474;-73
2021/01/01 05:26:05;;;;;;;43.10;32.13;;;4.20;99.90;;;;;;5069257;28;20514;-73
2021/01/01 05:28:51;;;;;;;37.10;29.50;;;4.20;99.90;;;;;;5078263;28;20934;-73
2021/01/01 05:31:22;;;;;;;37.70;28.70;;;4.20;99.90;;;;;;5069783;28;20477;-73
2021/01/01 05:33:56;;;;;;;39.90;31.47;;;4.20;99.90;;;;;;5072738;28;20441;-73
2021/01/01 05:36:48;;;;;;;40.10;29.40;;;4.20;99.90;;;;;;5055642;28;20503;-73
2021/01/01 05:39:13;;;;;;;38.60;29.20;;;4.30;99.90;;;;;;5065284;28;20446;-73
2021/01/01 05:41:41;;;;;;;41.90;30.27;;;4.30;99.90;;;;;;5069849;28;20763;-73
2021/01/01 05:44:08;;;;;;;42.20;27.83;;;4.20;99.90;;;;;;5055621;28;20232;-73
2021/01/01 05:46:34;;;;;;;38.33;27.93;;;4.30;99.90;;;;;;5068843;28;20462;-73
2021/01/01 05:49:01;;;;;;;35.60;28.13;;;4.30;99.90;;;;;;5069989;28;20491;-73
2021/01/01 05:51:26;;;;;;;36.50;28.63;;;4.30;99.90;;;;;;5069079;28;20649;-73
2021/01/01 05:54:08;;;;;;;40.50;29.80;;;4.30;99.90;;;;;;5069482;28;20441;-73
2021/01/01 05:56:34;;;;;;;41.90;28.30;;;4.30;99.90;;;;;;5054737;28;20213;-73
2021/01/01 05:59:01;;;;;;;39.60;29.30;;;4.30;99.90;;;;;;5070365;28;20421;-73
2021/01/01 06:01:31;;;;;;;36.80;29.43;;;4.30;99.90;;;;;;5072073;28;20354;-73
2021/01/01 06:03:57;;;;;;;37.23;27.70;;;4.30;99.90;;;;;;5067601;28;20492;-73
2021/01/01 06:06:25;;;;;;;39.87;28.80;;;4.30;99.90;;;;;;5069920;28;20505;-73
2021/01/01 06:08:53;;;;;;;34.30;27.20;;;4.30;99.90;;;;;;5069206;28;20183;-73
2021/01/01 06:11:28;;;;;;;35.93;26.30;;;4.30;99.90;;;;;;5070048;28;20469;-73
2021/01/01 06:14:02;;;;;;;36.33;27.30;;;4.30;99.90;;;;;;5052848;28;20438;-73
2021/01/01 06:16:42;;;;;;;33.00;25.80;;;4.30;99.90;;;;;;5070585;28;20448;-73
2021/01/01 06:19:11;;;;;;;40.50;26.87;;;4.40;99.90;;;;;;5074371;28;20492;-73
2021/01/01 06:21:44;;;;;;;39.23;26.73;;;4.30;99.90;;;;;;5068794;28;20440;-73
2021/01/01 06:24:17;;;;;;;34.70;27.10;;;4.30;99.90;;;;;;5071423;28;20533;-73
2021/01/01 06:26:43;;;;;;;36.93;27.13;;;4.30;99.90;;;;;;5055882;28;20997;-73
2021/01/01 06:29:10;;;;;;;38.50;28.53;;;4.30;99.90;;;;;;5071532;28;20433;-73
2021/01/01 06:31:37;;;;;;;34.20;26.13;;;4.30;99.90;;;;;;5075640;28;20183;-73
2021/01/01 06:34:22;;;;;;;35.20;26.50;;;4.30;99.90;;;;;;5072366;28;20445;-73
2021/01/01 06:36:48;;;;;;;30.73;24.87;;;4.30;99.90;;;;;;5073783;28;21030;-73
2021/01/01 06:39:37;;;;;;;40.00;27.70;;;4.30;99.90;;;;;;5077249;28;20442;-73
2021/01/01 06:42:03;;;;;;;37.20;28.00;;;4.30;99.90;;;;;;5076317;28;20441;-73
2021/01/01 06:44:37;;;;;;;33.90;27.43;;;4.20;99.90;;;;;;5054534;28;20429;-73
2021/01/01 06:47:10;;;;;;;37.70;29.10;;;4.20;99.90;;;;;;5082262;28;20459;-73
2021/01/01 06:49:39;;;;;;;38.70;28.73;;;4.20;99.90;;;;;;5054613;28;20518;-73
2021/01/01 06:52:12;;;;;;;38.40;30.47;;;4.20;99.90;;;;;;5055422;28;20835;-73
2021/01/01 06:55:01;;;;;;;39.07;30.43;;;4.20;99.90;;;;;;5073055;28;20437;-73
2021/01/01 06:57:29;;;;;;;45.57;29.30;;;4.20;99.90;;;;;;5072431;28;20919;-73
2021/01/01 06:59:56;;;;;;;43.07;31.50;;;4.20;99.90;;;;;;5054736;28;20438;-73
2021/01/01 07:02:29;;;;;;;42.87;31.63;;;4.10;99.90;;;;;;5072386;28;20425;-73
2021/01/01 07:04:56;;;;;;;42.87;31.03;;;4.10;99.90;;;;;;5073101;28;21025;-73
2021/01/01 07:07:48;;;;;;;45.00;30.77;;;4.10;99.90;;;;;;5074122;28;20771;-73
2021/01/01 07:10:34;;;;;;;46.70;31.50;;;4.10;99.90;;;;;;5070853;28;20442;-73
2021/01/01 07:13:16;;;;;;;47.97;32.10;;;4.10;99.90;;;;;;5055261;28;20984;-73
2021/01/01 07:15:42;;;;;;;45.63;32.83;;;4.20;99.90;;;;;;5072530;28;20536;-73
2021/01/01 07:18:08;;;;;;;50.10;34.50;;;4.10;99.90;;;;;;5061315;28;20509;-73
2021/01/01 07:20:39;;;;;;;42.70;30.97;;;4.20;99.90;;;;;;5059912;28;20214;-73
2021/01/01 07:23:05;;;;;;;47.57;34.60;;;4.20;99.90;;;;;;5074871;28;20340;-73
2021/01/01 07:25:35;;;;;;;54.30;36.60;;;4.20;99.90;;;;;;5076744;28;20453;-73
2021/01/01 07:28:03;;;;;;;50.90;35.83;;;4.20;99.90;;;;;;5072627;28;20447;-73
2021/01/01 07:30:33;;;;;;;54.40;36.63;;;4.10;99.90;;;;;;5073037;28;20446;-73
2021/01/01 07:32:59;;;;;;;53.17;38.87;;;4.10;99.90;;;;;;5070733;28;20791;-73
2021/01/01 07:35:26;;;;;;;53.03;37.90;;;4.10;99.90;;;;;;5072076;28;20460;-73
2021/01/01 07:37:53;;;;;;;55.00;37.80;;;4.10;99.90;;;;;;5077076;28;20563;-73
2021/01/01 07:40:19;;;;;;;50.13;36.00;;;4.00;99.90;;;;;;5072008;28;20440;-73
2021/01/01 07:42:52;;;;;;;55.90;38.43;;;4.00;99.90;;;;;;5073043;28;20438;-73
2021/01/01 07:45:18;;;;;;;56.80;37.80;;;4.00;99.90;;;;;;5071435;28;20469;-73
2021/01/01 07:47:47;;;;;;;54.37;40.47;;;4.00;99.90;;;;;;5078975;28;20445;-73
2021/01/01 07:50:18;;;;;;;54.20;38.60;;;4.00;99.90;;;;;;5070850;28;20824;-73
2021/01/01 07:52:45;;;;;;;51.33;36.43;;;4.00;99.90;;;;;;5074552;28;20432;-73
2021/01/01 07:55:11;;;;;;;57.30;39.83;;;4.00;99.90;;;;;;5056209;28;20472;-73
2021/01/01 07:57:39;;;;;;;54.57;38.27;;;4.00;99.90;;;;;;5074587;28;20718;-73
2021/01/01 08:00:07;;;;;;;57.10;39.27;;;4.00;99.90;;;;;;5078897;28;20567;-73
2021/01/01 08:02:33;;;;;;;59.07;39.37;;;4.00;99.90;;;;;;5054440;28;20449;-73
2021/01/01 08:05:03;;;;;;;58.33;39.87;;;4.00;99.90;;;;;;5071286;28;20476;-73
2021/01/01 08:07:28;;;;;;;63.30;44.27;;;4.00;99.90;;;;;;5071529;28;20530;-73
2021/01/01 08:09:54;;;;;;;65.57;43.17;;;4.10;99.90;;;;;;5073078;28;20495;-73
2021/01/01 08:12:19;;;;;;;68.73;45.13;;;4.10;99.90;;;;;;5070933;28;20183;-73
2021/01/01 08:14:49;;;;;;;65.37;43.30;;;4.10;99.90;;;;;;5079095;28;20639;-73
2021/01/01 08:17:23;;;;;;;63.67;42.40;;;4.10;99.90;;;;;;5072966;28;20197;-73
2021/01/01 08:19:49;;;;;;;62.57;41.90;;;4.10;99.90;;;;;;5075448;28;20453;-73
2021/01/01 08:22:26;;;;;;;59.90;44.37;;;4.20;99.90;;;;;;5073558;28;20425;-73
2021/01/01 08:24:56;;;;;;;64.20;41.83;;;4.10;99.90;;;;;;5067393;28;20555;-73
2021/01/01 08:27:23;;;;;;;66.63;43.27;;;4.20;99.90;;;;;;5072260;28;20433;-73
2021/01/01 08:29:50;;;;;;;59.30;42.37;;;4.20;99.90;;;;;;5070886;28;20468;-73
2021/01/01 08:32:20;;;;;;;60.73;45.03;;;4.20;99.90;;;;;;5072098;28;20796;-73
2021/01/01 08:34:50;;;;;;;72.53;46.43;;;4.20;99.90;;;;;;5052686;28;20430;-73
2021/01/01 08:37:24;;;;;;;63.07;43.23;;;4.30;99.90;;;;;;5073471;28;20433;-73
2021/01/01 08:40:10;;;;;;;66.50;44.80;;;4.30;99.90;;;;;;5070669;28;20429;-73
2021/01/01 08:42:40;;;;;;;65.43;45.17;;;4.30;99.90;;;;;;5069819;28;20440;-73
2021/01/01 08:45:10;;;;;;;66.03;44.30;;;4.40;99.90;;;;;;5070724;28;20461;-73
2021/01/01 08:47:48;;;;;;;56.83;40.97;;;4.40;99.90;;;;;;5071816;28;20919;-73
2021/01/01 08:50:28;;;;;;;62.53;45.73;;;4.40;99.90;;;;;;5070404;28;20464;-73
2021/01/01 08:52:58;;;;;;;63.53;43.63;;;4.40;99.90;;;;;;5070992;28;20446;-73
2021/01/01 08:55:25;;;;;;;60.47;41.80;;;4.40;99.90;;;;;;5070082;28;20448;-73
2021/01/01 08:58:04;;;;;;;64.73;44.10;;;4.50;99.90;;;;;;5072478;28;20465;-73
2021/01/01 09:00:29;;;;;;;60.63;42.00;;;4.50;99.90;;;;;;5060090;28;20445;-73
2021/01/01 09:02:56;;;;;;;61.30;42.90;;;4.50;99.90;;;;;;5053625;28;20445;-73
2021/01/01 09:05:25;;;;;;;65.67;41.87;;;4.60;99.90;;;;;;5053129;28;20222;-73
2021/01/01 09:08:14;;;;;;;65.03;41.30;;;4.60;99.90;;;;;;5075535;28;20453;-73
2021/01/01 09:10:41;;;;;;;61.10;41.10;;;4.60;99.90;;;;;;5072129;28;20498;-73
2021/01/01 09:13:18;;;;;;;69.27;44.43;;;4.60;99.90;;;;;;5070228;28;20649;-73
2021/01/01 09:15:46;;;;;;;71.00;43.10;;;4.70;99.90;;;;;;5056978;28;20494;-73
2021/01/01 09:18:13;;;;;;;70.57;44.60;;;4.70;99.90;;;;;;5077553;28;20533;-73
2021/01/01 09:20:42;;;;;;;66.07;44.63;;;4.70;99.90;;;;;;5071991;28;20497;-73
2021/01/01 09:23:08;;;;;;;76.13;46.33;;;4.80;99.90;;;;;;5070111;28;20523;-73
2021/01/01 09:25:34;;;;;;;70.70;44.00;;;4.80;99.90;;;;;;5070153;28;20865;-73
2021/01/01 09:28:00;;;;;;;67.07;44.70;;;4.90;99.90;;;;;;5071554;28;20472;-73
2021/01/01 09:30:31;;;;;;;69.13;45.07;;;4.90;99.90;;;;;;5051528;28;20777;-73
2021/01/01 09:33:02;;;;;;;67.47;42.63;;;4.90;99.90;;;;;;5070581;28;20210;-73
2021/01/01 09:35:29;;;;;;;73.67;44.00;;;4.90;99.90;;;;;;5072300;28;20494;-73
2021/01/01 09:38:04;;;;;;;63.37;43.60;;;4.90;99.90;;;;;;5055200;28;20975;-73
2021/01/01 09:40:32;;;;;;;74.27;44.50;;;4.90;99.90;;;;;;5051969;28;20983;-73
2021/01/01 09:43:01;;;;;;;69.50;42.97;;;4.90;99.90;;;;;;5069165;28;20437;-73
2021/01/01 09:45:27;;;;;;;68.33;45.23;;;5.00;99.90;;;;;;5069417;28;20493;-73
2021/01/01 09:47:52;;;;;;;60.70;42.33;;;5.10;99.90;;;;;;5070224;28;20538;-73
2021/01/01 09:50:18;;;;;;;64.10;44.00;;;5.00;99.90;;;;;;5071811;28;20711;-73
2021/01/01 09:52:44;;;;;;;66.90;45.07;;;5.10;99.90;;;;;;5075753;28;20194;-73
2021/01/01 09:55:10;;;;;;;65.83;43.70;;;5.10;99.90;;;;;;5071909;28;20536;-73
2021/01/01 09:57:38;;;;;;;70.77;46.27;;;5.20;99.90;;;;;;5075115;28;20664;-73
2021/01/01 10:00:05;;;;;;;74.23;43.23;;;5.20;99.90;;;;;;5069250;28;20458;-73
2021/01/01 10:02:31;;;;;;;75.10;49.17;;;5.20;99.90;;;;;;5070631;28;20821;-73
2021/01/01 10:04:56;;;;;;;77.63;46.10;;;5.20;99.90;;;;;;5055140;28;20446;-73
2021/01/01 10:07:22;;;;;;;77.13;46.30;;;5.20;99.90;;;;;;5069797;28;20202;-73
2021/01/01 10:09:48;;;;;;;80.90;47.30;;;5.30;99.90;;;;;;5069340;28;20203;-73
2021/01/01 10:12:14;;;;;;;73.67;48.10;;;5.30;99.90;;;;;;5068591;28;20195;-73
2021/01/01 10:14:40;;;;;;;75.63;46.10;;;5.30;99.90;;;;;;5069370;28;20195;-73
2021/01/01 10:17:06;;;;;;;77.83;48.47;;;5.40;99.90;;;;;;5069498;28;20433;-73
2021/01/01 10:19:31;;;;;;;82.00;48.00;;;5.40;99.90;;;;;;5061647;28;21167;-73
2021/01/01 10:21:57;;;;;;;77.13;47.77;;;5.40;99.90;;;;;;5071375;28;20174;-73
2021/01/01 10:24:22;;;;;;;78.50;50.77;;;5.40;99.90;;;;;;5074078;28;20519;-73
2021/01/01 10:26:55;;;;;;;73.80;49.00;;;5.50;99.90;;;;;;5066157;28;20245;-73
2021/01/01 10:29:21;;;;;;;82.90;47.53;;;5.50;99.90;;;;;;5051781;28;20184;-73
2021/01/01 10:31:47;;;;;;;82.73;52.30;;;5.50;99.90;;;;;;5068985;28;20444;-73
2021/01/01 10:34:13;;;;;;;77.07;48.20;;;5.50;99.90;;;;;;5068453;28;20990;-73
2021/01/01 10:36:39;;;;;;;79.83;51.10;;;5.60;99.90;;;;;;5071665;28;20427;-73
2021/01/01 10:39:08;;;;;;;77.17;51.70;;;5.60;99.90;;;;;;5053899;28;20271;-73
2021/01/01 10:41:35;;;;;;;74.03;50.37;;;5.70;99.90;;;;;;5068693;28;20999;-73
2021/01/01 10:44:05;;;;;;;84.90;52.00;;;5.70;99.90;;;;;;5069252;28;20430;-73
2021/01/01 10:46:31;;;;;;;74.90;50.17;;;5.70;99.90;;;;;;5076752;28;20480;-73
2021/01/01 10:48:58;;;;;;;72.13;49.83;;;5.70;99.90;;;;;;5069628;28;20795;-73
2021/01/01 10:51:25;;;;;;;77.70;49.60;;;5.70;99.90;;;;;;5070204;28;20461;-73
2021/01/01 10:53:51;;;;;;;68.77;44.07;;;5.70;99.90;;;;;;5071019;28;20865;-73
2021/01/01 10:56:21;;;;;;;65.90;41.30;;;5.70;99.90;;;;;;5069085;28;20844;-73
2021/01/01 10:58:47;;;;;;;76.37;48.40;;;5.70;99.90;;;;;;5051439;28;20464;-73
2021/01/01 11:01:12;;;;;;;66.60;41.77;;;5.80;99.90;;;;;;5068740;28;20570;-73
2021/01/01 11:03:38;;;;;;;68.73;45.60;;;5.80;99.90;;;;;;5069329;28;20452;-73
2021/01/01 11:06:04;;;;;;;58.33;40.93;;;5.80;99.90;;;;;;5069037;28;20200;-73
2021/01/01 11:08:29;;;;;;;61.37;43.27;;;5.70;99.90;;;;;;5073552;28;20264;-73
2021/01/01 11:10:55;;;;;;;63.03;42.10;;;5.80;99.90;;;;;;5068971;28;20191;-73
2021/01/01 11:13:20;;;;;;;58.90;41.13;;;5.80;99.90;;;;;;5067073;28;20740;-73
2021/01/01 12:25:24;;;;;;;40.23;30.93;;;5.60;99.90;;;;;;5029264;28;20491;-73
2021/01/01 12:27:50;;;;;;;49.87;31.20;;;5.60;99.90;;;;;;5074347;28;20448;-73
2021/01/01 12:30:17;;;;;;;39.63;30.80;;;5.50;99.90;;;;;;5053988;28;20441;-73
2021/01/01 12:32:43;;;;;;;44.97;31.57;;;5.50;99.90;;;;;;5071073;28;20559;-73
2021/01/01 12:35:10;;;;;;;45.87;31.63;;;5.50;99.90;;;;;;5072166;28;20549;-73
2021/01/01 12:37:38;;;;;;;43.60;32.20;;;5.40;99.90;;;;;;5072544;28;20445;-73
2021/01/01 12:40:12;;;;;;;46.93;33.50;;;5.40;99.90;;;;;;5071369;28;20434;-73
2021/01/01 12:42:38;;;;;;;47.37;32.60;;;5.40;99.90;;;;;;5075366;28;20535;-73
2021/01/01 12:45:05;;;;;;;45.10;33.70;;;5.40;99.90;;;;;;5070555;28;20873;-73
2021/01/01 12:47:32;;;;;;;41.97;32.53;;;5.40;99.90;;;;;;5071797;28;20199;-73
2021/01/01 12:49:58;;;;;;;42.33;31.63;;;5.40;99.90;;;;;;5050919;28;21009;-73
2021/01/01 12:52:23;;;;;;;42.67;32.97;;;5.40;99.90;;;;;;5074980;28;20516;-73
2021/01/01 12:54:49;;;;;;;38.50;30.60;;;5.30;99.90;;;;;;5070683;28;20191;-73
2021/01/01 12:57:14;;;;;;;45.10;33.00;;;5.30;99.90;;;;;;5071207;28;20188;-73
2021/01/01 12:59:40;;;;;;;43.17;30.57;;;5.30;99.90;;;;;;5053693;28;20586;-73
2021/01/01 13:02:06;;;;;;;46.63;32.33;;;5.20;99.90;;;;;;5070373;28;20180;-73
2021/01/01 13:04:31;;;;;;;44.57;33.10;;;5.20;99.90;;;;;;5070627;28;20204;-73
2021/01/01 13:06:57;;;;;;;46.00;32.60;;;5.20;99.90;;;;;;5055295;28;20215;-73
2021/01/01 13:09:22;;;;;;;46.00;32.30;;;5.20;99.90;;;;;;5070510;28;20203;-73
2021/01/01 13:11:48;;;;;;;45.70;32.40;;;5.20;99.90;;;;;;5057557;28;20195;-73
2021/01/01 13:14:14;;;;;;;44.00;33.77;;;5.20;99.90;;;;;;5070006;28;20242;-73
2021/01/01 13:16:45;;;;;;;41.00;32.20;;;5.20;99.90;;;;;;5070821;28;20180;-73
2021/01/01 13:19:11;;;;;;;41.73;31.40;;;5.10;99.90;;;;;;5079107;28;20503;-73
2021/01/01 13:21:39;;;;;;;41.70;30.47;;;5.10;99.90;;;;;;5068987;28;20477;-73
2021/01/01 13:24:06;;;;;;;41.93;31.17;;;5.10;99.90;;;;;;5069620;28;20502;-73
2021/01/01 13:26:32;;;;;;;42.97;29.10;;;5.10;99.90;;;;;;5069813;28;20898;-73
2021/01/01 13:28:59;;;;;;;36.77;29.03;;;5.00;99.90;;;;;;5051344;28;20452;-73
2021/01/01 13:31:34;;;;;;;44.03;31.67;;;5.10;99.90;;;;;;5069679;28;20494;-73
2021/01/01 13:34:01;;;;;;;36.20;29.30;;;5.10;99.90;;;;;;5069177;28;20473;-73
2021/01/01 13:36:26;;;;;;;40.70;28.67;;;5.10;99.90;;;;;;5053853;28;20496;-73
2021/01/01 13:38:52;;;;;;;38.93;27.90;;;5.10;99.90;;;;;;5075504;28;20473;-73
2021/01/01 13:41:17;;;;;;;35.70;26.17;;;5.10;99.90;;;;;;5071136;28;20714;-73
2021/01/01 13:43:44;;;;;;;35.77;25.97;;;5.00;99.90;;;;;;5069064;28;20250;-73
2021/01/01 13:46:21;;;;;;;37.23;27.10;;;5.00;99.90;;;;;;5070970;28;20218;-73
2021/01/01 13:48:47;;;;;;;37.57;25.47;;;5.00;99.90;;;;;;5069182;28;20814;-73
2021/01/01 13:51:12;;;;;;;35.40;24.80;;;4.90;99.90;;;;;;5054394;28;20536;-73